This is the latest recevied weather packets stored in our database for station/object DG6HD-13. If no packets are shown the sender has not sent any weather packets the latest 10 day(s).
| Time | Temp. | Humidity | Pressure | Rain* | Wind** | Luminosity | Snow |
|---|---|---|---|---|---|---|---|
| 1777811142 | 25.56° C | 38% | 1011 hPa | - | - | - | - |
| 1777807539 | 25° C | 40% | 1011.6 hPa | - | - | - | - |
| 1777806638 | 25° C | 38% | 1011.7 hPa | - | - | - | - |
| 1777803035 | 23.33° C | 42% | 1012.1 hPa | - | - | - | - |
| 1777802134 | 23.33° C | 43% | 1012.3 hPa | - | - | - | - |
| 1777801233 | 22.78° C | 43% | 1012.3 hPa | - | - | - | - |
| 1777800332 | 21.67° C | 45% | 1012.5 hPa | - | - | - | - |
| 1777799431 | 21.67° C | 45% | 1012.5 hPa | - | - | - | - |
| 1777798530 | 20.56° C | 46% | 1012.6 hPa | - | - | - | - |
| 1777797629 | 20° C | 47% | 1012.8 hPa | - | - | - | - |
| 1777796729 | 19.44° C | 46% | 1012.8 hPa | - | - | - | - |
| 1777795828 | 18.89° C | 46% | 1012.8 hPa | - | - | - | - |
| 1777794927 | 17.78° C | 46% | 1012.9 hPa | - | - | - | - |
| 1777794026 | 17.22° C | 47% | 1012.8 hPa | - | - | - | - |
| 1777793125 | 17.22° C | 47% | 1012.9 hPa | - | - | - | - |
| 1777792224 | 16.67° C | 48% | 1012.8 hPa | - | - | - | - |
| 1777791324 | 15.56° C | 48% | 1012.8 hPa | - | - | - | - |
| 1777790423 | 15° C | 49% | 1012.8 hPa | - | - | - | - |
| 1777789522 | 14.44° C | 50% | 1012.8 hPa | - | - | - | - |
| 1777788621 | 13.89° C | 51% | 1012.7 hPa | - | - | - | - |
| 1777787720 | 13.33° C | 50% | 1012.6 hPa | - | - | - | - |
| 1777786819 | 12.78° C | 48% | 1012.5 hPa | - | - | - | - |
| 1777785919 | 12.22° C | 50% | 1012.5 hPa | - | - | - | - |
| 1777785018 | 12.22° C | 49% | 1012.5 hPa | - | - | - | - |
| 1777784117 | 12.22° C | 50% | 1012.6 hPa | - | - | - | - |
* Rain since midnight (hover to see other rain measurements)
** Current wind speed in m/s (hover to see current wind gust speed)